ENML/MOL METAR and TAF weather

Enter ICAO airport designator
Station Type Date Time Source
ENML METAR 2022/11/27 09:20 UTC NOAA

ENML 270920Z AUTO 08012KT 050V120 9999NDV NCD 10/M00 Q1010


Station Type Date Time Source
ENML Decoded METAR 2022/11/27 09:20 UTC NOAA

Molde / Aro, Norway (ENML) 62-45N 007-16E 3M
Nov 27, 2022 - 04:20 AM EST / 2022.11.27 0920 UTC
Wind: from the E (080 degrees) at 14 MPH (12 KT) (direction variable):0
Temperature: 50 F (10 C)
Dew Point: 32 F (0 C)
Relative Humidity: 49%
Pressure (altimeter): 29.83 in. Hg (1010 hPa)
ob: ENML 270920Z AUTO 08012KT 050V120 9999NDV NCD 10/M00 Q1010
cycle: 9

Station Type Date Time Source
ENML TAF UTC NOAA

Error!

Example: see airport list